Latest Coastal Weather Observations for Cape Grim

IDT60701

Issued at 8:12 am EST Wednesday 29 June 2016 (issued every 10 minutes, with the page automatically refreshed every 10 minutes)

About coastal observations | Map of coastal stations | Coastal observations for TAS | Marine services | Other Formats
Station Details ID: 091331 Name: CAPE GRIM Lat: -40.68 Lon: 144.69 Height: 86.0 m
Data from the previous 72 hours. | See also: Recent months at Cape Grim
Date/Time
EST
Temp
°C
Wind Pressure Rain since
9am
mm
Weather Cloud Vis
km
Sea
Height
m
Swell
Dir  Spd
kts
Gust
kts
hPa Trend Height
m
Period
s
Dir
29/08:00am 13.4 W 18 24 1022.1 - 0.2 - Partly cloudy - - - - -
29/07:30am 13.2 W 19 23 1021.7 - 0.2 - Partly cloudy - - - - -
29/07:00am 13.2 W 18 24 1021.5 - 0.2 - Partly cloudy - - - - -
29/06:30am 13.1 W 20 26 1021.3 - 0.2 - - - - - - -
29/06:00am 13.2 W 21 28 1021.1 - 0.2 - - - - - - -
29/05:30am 13.0 W 23 30 1020.9 - 0.2 - - - - - - -
29/05:00am 13.1 W 24 29 1020.6 - 0.2 - - - - - - -
29/04:30am 13.0 W 22 28 1020.4 - 0.2 - Partly cloudy - - - - -
29/04:00am 13.2 W 25 31 1020.4 - 0.2 - Partly cloudy - - - - -
29/03:36am 13.2 W 25 35 1020.5 - 0.2 - Partly cloudy - - - - -
29/03:30am 13.3 W 24 33 1020.7 - 0.2 - Partly cloudy - - - - -
29/03:00am 13.2 W 24 33 1020.7 - 0.2 - Mostly clear - - - - -
29/02:34am 13.1 W 22 33 1020.6 - 0.2 - Partly cloudy - - - - -
29/02:30am 13.2 W 21 28 1020.6 - 0.2 - Partly cloudy - - - - -
29/02:02am 13.2 W 20 33 1020.6 - 0.2 - Partly cloudy - - - - -
29/02:00am 13.3 W 20 28 1020.7 - 0.2 - Partly cloudy - - - - -
29/01:30am 13.1 W 23 32 1020.5 - 0.2 - Partly cloudy - - - - -
29/01:00am 12.8 W 23 32 1020.6 - 0.2 - - - - - - -
29/12:30am 12.8 W 22 30 1020.7 - 0.2 - Partly cloudy - - - - -
29/12:00am 11.7 WNW 19 23 1020.8 - 0.2 Recent precip. Partly cloudy - - - - -
 
Date/Time
EST
Temp
°C
Wind Pressure Rain since
9am
mm
Weather Cloud Vis
km
Sea
Height
m
Swell
Dir  Spd
kts
Gust
kts
hPa Trend Height
m
Period
s
Dir
28/11:30pm 11.8 WNW 24 33 1020.7 - 0.0 - Partly cloudy - - - - -
28/11:24pm 13.2 WNW 19 29 1020.6 - 0.0 - Partly cloudy - - - - -
28/11:00pm 13.4 WNW 20 26 1020.8 - 0.0 - Partly cloudy - - - - -
28/10:30pm 13.3 WNW 22 29 1020.7 - 0.0 - Cloudy - - - - -
28/10:00pm 13.1 WNW 18 23 1020.7 - 0.0 - Partly cloudy - - - - -
28/09:30pm 13.5 W 24 29 1020.7 - 0.0 - Partly cloudy - - - - -
28/09:00pm 13.7 W 23 31 1020.5 - 0.0 - Cloudy - - - - -
28/08:30pm 13.6 W 19 25 1020.5 - 0.0 - Partly cloudy - - - - -
28/08:00pm 13.5 WNW 18 24 1020.3 - 0.0 - Partly cloudy - - - - -
28/07:30pm 13.6 W 19 27 1020.2 - 0.0 - Partly cloudy - - - - -
28/07:00pm 13.5 W 22 28 1019.9 - 0.0 - Partly cloudy - - - - -
28/06:30pm 13.5 W 21 28 1019.7 - 0.0 - Partly cloudy - - - - -
28/06:00pm 13.6 W 18 26 1019.5 - 0.0 - Cloudy - - - - -
28/05:34pm 13.4 W 20 30 1019.3 - 0.0 - Partly cloudy - - - - -
28/05:30pm 13.5 W 19 25 1019.3 - 0.0 - Partly cloudy - - - - -
28/05:11pm 13.4 W 20 30 1019.1 - 0.0 - Partly cloudy - - - - -
28/05:00pm 13.5 W 22 28 1019.1 - 0.0 - Partly cloudy - - - - -
28/04:30pm 13.4 W 21 30 1018.9 - 0.0 - Partly cloudy - - - - -
28/04:00pm 13.7 W 21 29 1018.8 - 0.0 - Partly cloudy - - - - -
28/03:30pm 13.9 W 21 30 1018.7 - 0.0 - Partly cloudy - - - - -
28/03:19pm 13.6 W 19 29 1018.6 - 0.0 - Partly cloudy - - - - -
28/03:00pm 13.6 W 18 25 1018.6 - 0.0 - Mostly clear - - - - -
28/02:30pm 13.5 W 19 29 1018.3 - 0.0 - Partly cloudy - - - - -
28/02:00pm 13.8 W 20 31 1018.2 - 0.0 - Partly cloudy - - - - -
28/01:55pm 13.7 W 21 31 1018.1 - 0.0 - Partly cloudy - - - - -
28/01:30pm 13.8 W 21 27 1018.1 - 0.0 - Partly cloudy - - - - -
28/01:01pm 13.7 W 18 28 1018.4 - 0.0 - Partly cloudy - - - - -
28/01:00pm 13.5 W 19 28 1018.4 - 0.0 - Partly cloudy - - - - -
28/12:59pm 13.6 W 19 29 1018.4 - 0.0 - Partly cloudy - - - - -
28/12:30pm 13.5 W 21 28 1018.4 - 0.0 - Partly cloudy - - - - -
28/12:24pm 13.5 W 18 28 1018.5 - 0.0 - Partly cloudy - - - - -
28/12:00pm 13.6 W 21 28 1018.4 - 0.0 - Partly cloudy - - - - -
28/11:30am 13.2 W 21 27 1018.6 - 0.0 - Partly cloudy - - - - -
28/11:00am 13.2 W 21 27 1018.7 - 0.0 - Partly cloudy - - - - -
28/10:30am 13.5 W 22 29 1018.6 - 0.0 - Partly cloudy - - - - -
28/10:00am 13.7 W 21 26 1018.4 - 0.0 - Partly cloudy - - - - -
28/09:47am 13.2 W 19 29 1018.4 - 0.0 - Partly cloudy - - - - -
28/09:30am 13.1 W 20 24 1018.1 - 0.0 - Partly cloudy - - - - -
28/09:10am 12.7 W 21 32 1017.9 - 0.0 - Partly cloudy - - - - -
28/09:00am 12.9 W 20 29 1017.9 - 1.0 - Partly cloudy - - - - -
28/08:51am 12.8 W 19 29 1017.8 - 1.0 - Partly cloudy - - - - -
28/08:30am 13.1 W 22 29 1017.7 - 1.0 - Partly cloudy - - - - -
28/08:10am 13.0 W 19 29 1017.5 - 1.0 - Partly cloudy - - - - -
28/08:00am 13.0 W 21 27 1017.4 - 1.0 - Partly cloudy - - - - -
28/07:30am 12.8 W 22 28 1017.1 - 1.0 - Partly cloudy - - - - -
28/07:00am 12.9 W 22 29 1016.8 - 1.0 - Partly cloudy - - - - -
28/06:43am 13.0 W 22 32 1016.6 - 1.0 - Partly cloudy - - - - -
28/06:30am 12.8 W 22 27 1016.4 - 1.0 - Partly cloudy - - - - -
28/06:00am 12.9 W 23 29 1016.2 - 1.0 - Cloudy - - - - -
28/05:30am 12.9 W 22 29 1015.9 - 1.0 - Partly cloudy - - - - -
28/05:00am 12.8 W 21 28 1015.7 - 1.0 - Partly cloudy - - - - -
28/04:30am 12.9 W 20 27 1015.6 - 1.0 - Partly cloudy - - - - -
28/04:00am 12.8 W 22 29 1015.7 - 1.0 - Partly cloudy - - - - -
28/03:30am 12.9 W 23 30 1015.6 - 1.0 - Partly cloudy - - - - -
28/03:00am 12.8 W 22 31 1015.8 - 1.0 - Mostly cloudy - - - - -
28/02:30am 12.7 WNW 22 28 1015.7 - 1.0 - Partly cloudy - - - - -
28/02:00am 12.7 WNW 22 27 1015.8 - 1.0 - Partly cloudy - - - - -
28/01:30am 12.7 W 22 29 1015.6 - 1.0 - Partly cloudy - - - - -
28/01:00am 12.5 W 22 28 1015.7 - 1.0 - Partly cloudy - - - - -
28/12:30am 12.4 W 21 28 1015.6 - 1.0 - Partly cloudy - - - - -
28/12:00am 11.9 WNW 22 29 1015.8 - 1.0 - Cloudy - - - - -
 
Date/Time
EST
Temp
°C
Wind Pressure Rain since
9am
mm
Weather Cloud Vis
km
Sea
Height
m
Swell
Dir  Spd
kts
Gust
kts
hPa Trend Height
m
Period
s
Dir
27/11:30pm 12.5 W 20 26 1015.8 - 1.0 - Partly cloudy - - - - -
27/11:19pm 12.0 W 21 31 1015.8 - 1.0 - Partly cloudy - - - - -
27/11:00pm 12.5 WNW 22 30 1015.7 - 1.0 - Partly cloudy - - - - -
27/10:30pm 12.6 W 22 30 1015.8 - 1.0 - Partly cloudy - - - - -
27/10:10pm 12.2 W 19 30 1015.6 - 1.0 - Partly cloudy - - - - -
27/10:00pm 11.3 W 20 27 1015.8 - 1.0 - Partly cloudy - - - - -
27/09:30pm 12.3 W 22 29 1015.7 - 1.0 - Partly cloudy - - - - -
27/09:00pm 12.1 W 20 26 1015.8 - 1.0 Recent precip. Mostly clear - - - - -
27/08:30pm 10.9 WNW 13 17 1015.8 - 0.8 - Partly cloudy - - - - -
27/08:14pm 10.6 WNW 17 27 1015.8 - 0.8 - Partly cloudy - - - - -
27/08:00pm 11.2 W 16 25 1015.7 - 0.8 - Partly cloudy - - - - -
27/07:30pm 10.5 WNW 16 20 1015.7 - 0.8 - Partly cloudy - - - - -
27/07:00pm 10.9 W 20 30 1015.5 - 0.8 - Partly cloudy - - - - -
27/06:52pm 11.6 W 20 30 1015.2 - 0.8 - Partly cloudy - - - - -
27/06:30pm 11.8 W 19 25 1015.1 - 0.8 - Partly cloudy - - - - -
27/06:00pm 11.9 W 15 20 1014.9 - 0.8 - Partly cloudy - - - - -
27/05:30pm 11.7 W 15 23 1014.5 - 0.8 - Partly cloudy - - - - -
27/05:00pm 11.2 W 19 26 1014.3 - 0.8 - Partly cloudy - - - - -
27/04:30pm 11.3 W 17 24 1014.2 - 0.8 - Partly cloudy - - - - -
27/04:00pm 11.7 W 14 20 1014.1 - 0.8 - Partly cloudy - - - - -
27/03:30pm 12.0 W 14 19 1014.0 - 0.8 - - - - - - -
27/03:00pm 11.9 W 14 24 1013.8 - 0.8 Recent precip. Partly cloudy - - - - -
27/02:30pm 10.5 W 13 24 1014.0 - 0.8 - Partly cloudy - - - - -
27/02:00pm 11.6 WSW 12 23 1013.8 - 0.0 - Partly cloudy - - - - -
27/01:30pm 11.6 W 10 15 1013.8 - 0.0 - - - - - - -
27/01:00pm 11.1 WNW 11 16 1013.9 - 0.0 - Partly cloudy - - - - -
27/12:30pm 11.6 W 11 18 1014.1 - 0.0 - Partly cloudy - - - - -
27/12:00pm 12.0 W 13 21 1014.3 - 0.0 - Partly cloudy - - - - -
27/11:30am 11.9 W 9 12 1014.4 - 0.0 - - - - - - -
27/11:00am 11.8 W 10 16 1014.5 - 0.0 - Partly cloudy - - - - -
27/10:30am 11.7 WSW 7 13 1014.5 - 0.0 - Partly cloudy - - - - -
27/10:00am 11.6 WSW 8 14 1014.3 - 0.0 - - - - - - -
27/09:30am 11.4 SW 12 16 1014.2 - 0.0 - Partly cloudy - - - - -
27/09:00am 11.3 WSW 10 17 1014.0 - 15.4 - Mostly clear - - - - -
27/08:30am 10.8 WSW 8 15 1013.6 - 15.4 - Partly cloudy - - - - -
27/08:00am 10.2 SW 17 24 1013.5 - 15.4 - Partly cloudy - - - - -
27/07:30am 10.9 WSW 11 17 1013.2 - 15.4 - - - - - - -
27/07:00am 10.9 SW 13 19 1012.8 - 15.4 - Partly cloudy - - - - -
27/06:30am 10.9 WSW 11 17 1012.5 - 15.4 - Partly cloudy - - - - -
27/06:00am 10.9 SW 15 19 1012.2 - 15.4 - Mostly clear - - - - -
27/05:30am 10.9 SW 16 20 1011.8 - 15.4 - Partly cloudy - - - - -
27/05:00am 11.1 SW 17 21 1011.5 - 15.4 - Partly cloudy - - - - -
27/04:30am 11.0 SW 14 18 1011.4 - 15.4 - Partly cloudy - - - - -
27/04:00am 10.9 SW 16 20 1011.4 - 15.4 - Partly cloudy - - - - -
27/03:30am 10.8 SW 12 17 1011.3 - 15.4 - Partly cloudy - - - - -
27/03:00am 10.6 SSW 12 16 1011.2 - 15.4 - Cloudy - - - - -
27/02:30am 10.5 SW 14 20 1011.1 - 15.4 - Partly cloudy - - - - -
27/02:12am 10.6 SW 15 21 1011.1 - 15.4 - Partly cloudy - - - - -
27/02:00am 10.6 SW 9 11 1011.0 - 15.4 - Partly cloudy - - - - -
27/01:30am 10.6 WSW 8 12 1011.0 - 15.4 - Partly cloudy - - - - -
27/01:16am 10.5 NW 15 21 1011.0 - 15.2 - Partly cloudy - - - - -
27/01:00am 10.8 NNW 20 25 1010.8 - 14.8 - Partly cloudy - - - - -
27/12:45am 10.8 NW 21 28 1011.0 - 14.0 - Partly cloudy - - - - -
27/12:30am 10.7 NW 21 29 1011.1 - 13.0 - Partly cloudy - - - - -
27/12:14am 10.6 NNW 18 26 1011.3 - 12.6 - Partly cloudy - - - - -
27/12:09am 10.5 NW 12 26 1011.4 - 12.2 - Partly cloudy - - - - -
27/12:00am 9.4 WNW 10 14 1011.5 - 11.6 Rain Mostly cloudy - - - - -
 
Date/Time
EST
Temp
°C
Wind Pressure Rain since
9am
mm
Weather Cloud Vis
km
Sea
Height
m
Swell
Dir  Spd
kts
Gust
kts
hPa Trend Height
m
Period
s
Dir
26/11:35pm 9.1 WNW 15 21 1011.7 - 7.6 - Partly cloudy - - - - -
26/11:30pm 9.3 WNW 16 21 1011.9 - 6.4 - Partly cloudy - - - - -
26/11:13pm 9.6 WNW 20 27 1011.8 - 2.0 - Partly cloudy - - - - -
26/11:07pm 11.1 NW 22 29 1011.7 - 0.2 - Partly cloudy - - - - -
26/11:00pm 11.2 NW 23 31 1011.6 - 0.0 - Partly cloudy - - - - -
26/10:44pm 11.6 NW 23 33 1011.3 - 0.0 - Partly cloudy - - - - -
26/10:30pm 11.5 NNW 24 32 1011.3 - 0.0 - Partly cloudy - - - - -
26/10:23pm 11.6 NNW 24 34 1011.4 - 0.0 - Partly cloudy - - - - -
26/10:00pm 11.6 NNW 25 32 1011.5 - 0.0 - Partly cloudy - - - - -
26/09:30pm 11.6 NNW 24 29 1011.6 - 0.0 - Partly cloudy - - - - -
26/09:00pm 11.8 NNW 23 30 1011.9 - 0.0 - Cloudy - - - - -
26/08:30pm 11.5 NNW 24 29 1012.1 - 0.0 - Partly cloudy - - - - -
26/08:00pm 11.1 NNW 24 27 1012.3 - 0.0 - Partly cloudy - - - - -
26/07:30pm 11.1 NNW 22 27 1012.4 - 0.0 - Partly cloudy - - - - -
26/07:00pm 11.0 NNW 22 26 1012.5 - 0.0 - Partly cloudy - - - - -
26/06:30pm 10.9 NNW 21 25 1012.5 - 0.0 - Partly cloudy - - - - -
26/06:00pm 10.7 NNW 19 24 1012.5 - 0.0 - Cloudy - - - - -
26/05:30pm 10.7 NNW 18 24 1012.7 - 0.0 - Partly cloudy - - - - -
26/05:00pm 10.7 NNW 18 23 1012.9 - 0.0 - Partly cloudy - - - - -
26/04:30pm 10.8 NNW 19 24 1013.0 - 0.0 - Cloudy - - - - -
26/04:00pm 10.7 NNW 19 24 1013.2 - 0.0 - Partly cloudy - - - - -
26/03:30pm 10.8 NW 17 23 1013.3 - 0.0 - Partly cloudy - - - - -
26/03:00pm 10.9 NW 18 23 1013.3 - 0.0 - Cloudy - - - - -
26/02:30pm 11.1 NNW 18 23 1013.5 - 0.0 - Partly cloudy - - - - -
26/02:00pm 11.0 NNW 18 23 1013.8 - 0.0 - Partly cloudy - - - - -
26/01:30pm 11.0 NNW 18 23 1014.0 - 0.0 - Partly cloudy - - - - -
26/01:00pm 11.4 NNW 19 24 1014.4 - 0.0 - Partly cloudy - - - - -
26/12:30pm 11.1 NNW 19 24 1014.6 - 0.0 - Partly cloudy - - - - -
26/12:00pm 11.5 NW 18 23 1015.1 - 0.0 - Partly cloudy - - - - -
26/11:30am 11.8 NNW 19 26 1015.7 - 0.0 - Partly cloudy - - - - -
26/11:00am 12.0 NNW 18 23 1016.2 - 0.0 - Partly cloudy - - - - -
26/10:36am 11.8 NW 17 27 1016.5 - 0.0 - Partly cloudy - - - - -
26/10:30am 11.3 NNW 19 27 1016.5 - 0.0 - Partly cloudy - - - - -
26/10:00am 11.6 NW 19 26 1016.7 - 0.0 - Partly cloudy - - - - -
26/09:30am 11.5 NW 18 24 1016.8 - 0.0 - Partly cloudy - - - - -
26/09:00am 11.5 NW 20 25 1016.8 - 1.8 - Cloudy - - - - -
26/08:30am 11.3 NW 18 25 1016.8 - 1.8 - Partly cloudy - - - - -

Other Formats:

Comma delimited format used in spreadsheet applications
http://www.bom.gov.au/fwo/IDT60701/IDT60701.95954.axf

JavaScript Object Notation format (JSON) in row-major order
http://www.bom.gov.au/fwo/IDT60701/IDT60701.95954.json